Time,TemperatureF,DewpointF,PressureIn,WindDirection,WindDirectionDegrees,WindSpeedMPH,WindSpeedGustMPH,Humidity,HourlyPrecipIn,Conditions,Clouds,dailyrainin,SolarRadiationWatts/m^2,SoftwareType,DateUTC
2013-02-28 00:13:00,22.8,14.0,30.33,NE,42,1.0,-999.0,68,-99.99,,,0.00,0,weatherlink.com 1.10,2013-02-28 07:13:00,
2013-02-28 00:28:00,22.9,13.0,30.33,WNW,296,3.0,-999.0,67,-99.99,,,0.00,0,weatherlink.com 1.10,2013-02-28 07:28:00,
2013-02-28 00:43:00,23.5,14.0,30.34,WNW,285,5.0,-999.0,66,-99.99,,,0.00,0,weatherlink.com 1.10,2013-02-28 07:43:00,
2013-02-28 00:58:00,23.9,13.0,30.34,NNW,338,2.0,-999.0,64,-99.99,,,0.00,0,weatherlink.com 1.10,2013-02-28 07:58:00,
2013-02-28 01:15:00,23.2,13.0,30.34,North,350,3.0,-999.0,64,-99.99,,,0.00,0,weatherlink.com 1.10,2013-02-28 08:15:00,
2013-02-28 01:30:00,23.2,13.0,30.34,NW,317,4.0,-999.0,64,-99.99,,,0.00,0,weatherlink.com 1.10,2013-02-28 08:30:00,
2013-02-28 01:45:00,23.4,12.0,30.34,NE,39,2.0,-999.0,61,-99.99,,,0.00,0,weatherlink.com 1.10,2013-02-28 08:45:00,
2013-02-28 02:00:00,21.3,11.0,30.33,North,355,3.0,-999.0,64,-99.99,,,0.00,0,weatherlink.com 1.10,2013-02-28 09:00:00,
2013-02-28 02:15:00,21.1,11.0,30.33,NNW,347,0.0,-999.0,65,-99.99,,,0.00,0,weatherlink.com 1.10,2013-02-28 09:15:00,
2013-02-28 02:30:00,20.9,11.0,30.33,SW,224,2.0,-999.0,65,-99.99,,,0.00,0,weatherlink.com 1.10,2013-02-28 09:30:00,
2013-02-28 02:46:00,20.9,11.0,30.32,SW,224,1.0,-999.0,66,-99.99,,,0.00,0,weatherlink.com 1.10,2013-02-28 09:46:00,
2013-02-28 03:01:00,21.0,11.0,30.32,SW,223,7.0,-999.0,66,-99.99,,,0.00,0,weatherlink.com 1.10,2013-02-28 10:01:00,
2013-02-28 03:15:00,19.5,10.0,30.32,SW,225,3.0,-999.0,66,-99.99,,,0.00,0,weatherlink.com 1.10,2013-02-28 10:15:00,
2013-02-28 03:31:00,19.3,11.0,30.32,SSW,205,3.0,-999.0,70,-99.99,,,0.00,0,weatherlink.com 1.10,2013-02-28 10:31:00,
2013-02-28 03:46:00,19.9,12.0,30.32,SW,229,2.0,-999.0,71,-99.99,,,0.00,0,weatherlink.com 1.10,2013-02-28 10:46:00,
2013-02-28 04:02:00,20.4,12.0,30.31,WSW,245,1.0,-999.0,70,-99.99,,,0.00,0,weatherlink.com 1.10,2013-02-28 11:02:00,
2013-02-28 04:17:00,20.7,12.0,30.32,WNW,292,3.0,-999.0,68,-99.99,,,0.00,0,weatherlink.com 1.10,2013-02-28 11:17:00,
2013-02-28 04:32:00,20.5,10.0,30.32,NNE,19,7.0,-999.0,64,-99.99,,,0.00,0,weatherlink.com 1.10,2013-02-28 11:32:00,
2013-02-28 04:46:00,18.0,8.0,30.33,NNE,20,5.0,-999.0,66,-99.99,,,0.00,0,weatherlink.com 1.10,2013-02-28 11:46:00,
2013-02-28 05:02:00,18.7,9.0,30.32,NNE,24,5.0,-999.0,66,-99.99,,,0.00,0,weatherlink.com 1.10,2013-02-28 12:02:00,
2013-02-28 05:17:00,20.6,9.0,30.32,NE,36,2.0,-999.0,62,-99.99,,,0.00,0,weatherlink.com 1.10,2013-02-28 12:17:00,
2013-02-28 05:32:00,22.7,9.0,30.33,North,355,3.0,-999.0,56,-99.99,,,0.00,0,weatherlink.com 1.10,2013-02-28 12:32:00,
2013-02-28 05:48:00,24.6,8.0,30.34,NNW,343,4.0,-999.0,49,-99.99,,,0.00,0,weatherlink.com 1.10,2013-02-28 12:48:00,
2013-02-28 06:02:00,24.7,7.0,30.34,West,267,4.0,-999.0,47,-99.99,,,0.00,0,weatherlink.com 1.10,2013-02-28 13:02:00,
2013-02-28 06:18:00,22.9,6.0,30.34,WNW,294,3.0,-999.0,48,-99.99,,,0.00,0,weatherlink.com 1.10,2013-02-28 13:18:00,
2013-02-28 06:33:00,23.4,6.0,30.33,WNW,290,3.0,-999.0,47,-99.99,,,0.00,7,weatherlink.com 1.10,2013-02-28 13:33:00,
2013-02-28 06:48:00,24.1,6.0,30.33,West,267,3.0,-999.0,47,-99.99,,,0.00,18,weatherlink.com 1.10,2013-02-28 13:48:00,
2013-02-28 07:04:00,21.7,6.0,30.34,WSW,244,6.0,-999.0,51,-99.99,,,0.00,44,weatherlink.com 1.10,2013-02-28 14:04:00,
2013-02-28 07:18:00,18.3,6.0,30.34,West,267,6.0,-999.0,59,-99.99,,,0.00,88,weatherlink.com 1.10,2013-02-28 14:18:00,
2013-02-28 07:35:00,18.4,9.0,30.34,West,275,3.0,-999.0,66,-99.99,,,0.00,44,weatherlink.com 1.10,2013-02-28 14:35:00,
2013-02-28 07:50:00,20.0,11.0,30.34,West,275,4.0,-999.0,68,-99.99,,,0.00,220,weatherlink.com 1.10,2013-02-28 14:50:00,
2013-02-28 08:04:00,22.5,13.0,30.33,West,276,4.0,-999.0,68,-99.99,,,0.00,301,weatherlink.com 1.10,2013-02-28 15:04:00,
2013-02-28 08:20:00,25.4,14.0,30.34,West,265,7.0,-999.0,63,-99.99,,,0.00,251,weatherlink.com 1.10,2013-02-28 15:20:00,
2013-02-28 08:35:00,28.3,16.0,30.34,West,276,5.0,-999.0,61,-99.99,,,0.00,399,weatherlink.com 1.10,2013-02-28 15:35:00,
2013-02-28 08:50:00,30.6,16.0,30.34,West,274,5.0,-999.0,56,-99.99,,,0.00,410,weatherlink.com 1.10,2013-02-28 15:50:00,
2013-02-28 09:05:00,32.3,16.0,30.34,West,261,1.0,-999.0,52,-99.99,,,0.00,468,weatherlink.com 1.10,2013-02-28 16:05:00,
2013-02-28 09:21:00,35.8,14.0,30.34,NW,321,14.0,-999.0,41,-99.99,,,0.00,513,weatherlink.com 1.10,2013-02-28 16:21:00,
2013-02-28 09:36:00,38.0,12.0,30.34,NW,313,13.0,-999.0,35,-99.99,,,0.00,554,weatherlink.com 1.10,2013-02-28 16:36:00,
2013-02-28 09:51:00,38.8,13.0,30.34,WSW,254,12.0,-999.0,35,-99.99,,,0.00,592,weatherlink.com 1.10,2013-02-28 16:51:00,
2013-02-28 10:07:00,40.0,15.0,30.33,West,271,11.0,-999.0,37,-99.99,,,0.00,659,weatherlink.com 1.10,2013-02-28 17:07:00,
2013-02-28 10:22:00,40.5,18.0,30.33,SSW,211,4.0,-999.0,40,-99.99,,,0.00,846,weatherlink.com 1.10,2013-02-28 17:22:00,
2013-02-28 10:37:00,39.1,16.0,30.32,South,190,5.0,-999.0,39,-99.99,,,0.00,410,weatherlink.com 1.10,2013-02-28 17:37:00,
2013-02-28 10:51:00,38.5,14.0,30.32,SSW,213,5.0,-999.0,37,-99.99,,,0.00,659,weatherlink.com 1.10,2013-02-28 17:51:00,
2013-02-28 11:07:00,38.9,16.0,30.32,SW,216,5.0,-999.0,39,-99.99,,,0.00,606,weatherlink.com 1.10,2013-02-28 18:07:00,
2013-02-28 11:22:00,40.2,18.0,30.32,SSW,205,5.0,-999.0,40,-99.99,,,0.00,654,weatherlink.com 1.10,2013-02-28 18:22:00,
2013-02-28 11:38:00,41.0,15.0,30.32,South,178,3.0,-999.0,35,-99.99,,,0.00,796,weatherlink.com 1.10,2013-02-28 18:38:00,
2013-02-28 11:53:00,41.1,14.0,30.31,SW,215,6.0,-999.0,33,-99.99,,,0.00,636,weatherlink.com 1.10,2013-02-28 18:53:00,
2013-02-28 12:08:00,41.4,13.0,30.30,SSW,197,6.0,-999.0,32,-99.99,,,0.00,652,weatherlink.com 1.10,2013-02-28 19:08:00,
2013-02-28 12:23:00,41.7,14.0,30.30,SSW,207,7.0,-999.0,32,-99.99,,,0.00,466,weatherlink.com 1.10,2013-02-28 19:23:00,
2013-02-28 12:38:00,41.1,15.0,30.28,South,179,2.0,-999.0,35,-99.99,,,0.00,457,weatherlink.com 1.10,2013-02-28 19:38:00,
2013-02-28 12:54:00,40.7,14.0,30.27,SSW,200,6.0,-999.0,33,-99.99,,,0.00,320,weatherlink.com 1.10,2013-02-28 19:54:00,
2013-02-28 13:08:00,40.6,12.0,30.27,South,172,3.0,-999.0,31,-99.99,,,0.00,524,weatherlink.com 1.10,2013-02-28 20:08:00,
2013-02-28 13:23:00,41.5,12.0,30.26,SSW,201,7.0,-999.0,30,-99.99,,,0.00,854,weatherlink.com 1.10,2013-02-28 20:23:00,
2013-02-28 13:38:00,42.3,13.0,30.26,South,190,6.0,-999.0,31,-99.99,,,0.00,543,weatherlink.com 1.10,2013-02-28 20:38:00,
2013-02-28 13:55:00,42.6,12.0,30.25,South,173,4.0,-999.0,29,-99.99,,,0.00,654,weatherlink.com 1.10,2013-02-28 20:55:00,
2013-02-28 14:10:00,42.9,15.0,30.25,SW,219,7.0,-999.0,32,-99.99,,,0.00,666,weatherlink.com 1.10,2013-02-28 21:10:00,
2013-02-28 14:25:00,43.2,13.0,30.25,SSW,210,7.0,-999.0,29,-99.99,,,0.00,666,weatherlink.com 1.10,2013-02-28 21:25:00,
2013-02-28 14:40:00,43.9,12.0,30.25,South,186,5.0,-999.0,27,-99.99,,,0.00,308,weatherlink.com 1.10,2013-02-28 21:40:00,
2013-02-28 14:55:00,44.2,14.0,30.25,South,171,2.0,-999.0,29,-99.99,,,0.00,643,weatherlink.com 1.10,2013-02-28 21:55:00,
2013-02-28 15:10:00,44.0,13.0,30.25,SSW,193,4.0,-999.0,29,-99.99,,,0.00,299,weatherlink.com 1.10,2013-02-28 22:10:00,
2013-02-28 15:26:00,43.0,13.0,30.25,SW,217,4.0,-999.0,30,-99.99,,,0.00,241,weatherlink.com 1.10,2013-02-28 22:26:00,
2013-02-28 15:41:00,41.8,14.0,30.25,SW,221,7.0,-999.0,32,-99.99,,,0.00,139,weatherlink.com 1.10,2013-02-28 22:41:00,
2013-02-28 15:56:00,40.5,13.0,30.25,SSW,192,3.0,-999.0,33,-99.99,,,0.00,125,weatherlink.com 1.10,2013-02-28 22:56:00,
2013-02-28 16:12:00,39.6,15.0,30.25,SSW,197,4.0,-999.0,37,-99.99,,,0.00,107,weatherlink.com 1.10,2013-02-28 23:12:00,
2013-02-28 16:27:00,38.8,16.0,30.25,SSW,196,5.0,-999.0,40,-99.99,,,0.00,81,weatherlink.com 1.10,2013-02-28 23:27:00,
2013-02-28 16:42:00,38.1,17.0,30.25,SSW,209,4.0,-999.0,42,-99.99,,,0.00,70,weatherlink.com 1.10,2013-02-28 23:42:00,
2013-02-28 16:57:00,37.3,18.0,30.26,SSW,202,6.0,-999.0,45,-99.99,,,0.00,44,weatherlink.com 1.10,2013-02-28 23:57:00,
2013-02-28 17:12:00,36.5,18.0,30.26,SSW,205,6.0,-999.0,47,-99.99,,,0.00,69,weatherlink.com 1.10,2013-03-01 00:12:00,
2013-02-28 17:27:00,37.1,17.0,30.26,SSW,204,5.0,-999.0,45,-99.99,,,0.00,30,weatherlink.com 1.10,2013-03-01 00:27:00,
2013-02-28 17:42:00,36.8,17.0,30.26,SSW,212,1.0,-999.0,45,-99.99,,,0.00,14,weatherlink.com 1.10,2013-03-01 00:42:00,
2013-02-28 17:58:00,36.2,17.0,30.27,SSW,206,1.0,-999.0,45,-99.99,,,0.00,0,weatherlink.com 1.10,2013-03-01 00:58:00,
2013-02-28 18:13:00,35.0,18.0,30.27,South,188,0.0,-999.0,50,-99.99,,,0.00,0,weatherlink.com 1.10,2013-03-01 01:13:00,
2013-02-28 18:27:00,34.4,17.0,30.28,South,188,1.0,-999.0,50,-99.99,,,0.00,0,weatherlink.com 1.10,2013-03-01 01:27:00,
2013-02-28 18:42:00,34.4,17.0,30.29,SE,136,1.0,-999.0,49,-99.99,,,0.00,0,weatherlink.com 1.10,2013-03-01 01:42:00,
2013-02-28 18:58:00,33.6,19.0,30.30,NNE,30,3.0,-999.0,55,-99.99,,,0.00,0,weatherlink.com 1.10,2013-03-01 01:58:00,
2013-02-28 19:13:00,33.2,18.0,30.29,NE,36,6.0,-999.0,54,-99.99,,,0.00,0,weatherlink.com 1.10,2013-03-01 02:13:00,
2013-02-28 19:28:00,33.6,18.0,30.30,NNE,28,3.0,-999.0,52,-99.99,,,0.00,0,weatherlink.com 1.10,2013-03-01 02:28:00,
2013-02-28 19:43:00,35.5,15.0,30.30,WNW,299,11.0,-999.0,44,-99.99,,,0.00,0,weatherlink.com 1.10,2013-03-01 02:43:00,
2013-02-28 19:58:00,36.2,16.0,30.30,WNW,300,14.0,-999.0,43,-99.99,,,0.00,0,weatherlink.com 1.10,2013-03-01 02:58:00,
2013-02-28 20:14:00,35.0,15.0,30.29,WNW,294,7.0,-999.0,45,-99.99,,,0.00,0,weatherlink.com 1.10,2013-03-01 03:14:00,
2013-02-28 20:29:00,33.5,15.0,30.29,West,261,8.0,-999.0,47,-99.99,,,0.00,0,weatherlink.com 1.10,2013-03-01 03:29:00,
2013-02-28 20:44:00,33.0,15.0,30.29,West,277,9.0,-999.0,48,-99.99,,,0.00,0,weatherlink.com 1.10,2013-03-01 03:44:00,
2013-02-28 20:59:00,33.8,16.0,30.28,West,269,10.0,-999.0,48,-99.99,,,0.00,0,weatherlink.com 1.10,2013-03-01 03:59:00,
2013-02-28 21:14:00,33.7,16.0,30.28,West,271,10.0,-999.0,48,-99.99,,,0.00,0,weatherlink.com 1.10,2013-03-01 04:14:00,
2013-02-28 21:31:00,34.2,16.0,30.27,West,271,11.0,-999.0,48,-99.99,,,0.00,0,weatherlink.com 1.10,2013-03-01 04:31:00,
2013-02-28 21:45:00,34.4,16.0,30.27,West,266,13.0,-999.0,47,-99.99,,,0.00,0,weatherlink.com 1.10,2013-03-01 04:45:00,
2013-02-28 22:01:00,35.9,16.0,30.27,West,275,14.0,-999.0,45,-99.99,,,0.00,0,weatherlink.com 1.10,2013-03-01 05:01:00,
2013-02-28 22:16:00,35.1,16.0,30.27,WSW,248,5.0,-999.0,46,-99.99,,,0.00,0,weatherlink.com 1.10,2013-03-01 05:16:00,
2013-02-28 22:30:00,33.5,16.0,30.27,SW,234,4.0,-999.0,48,-99.99,,,0.00,0,weatherlink.com 1.10,2013-03-01 05:30:00,
2013-02-28 22:47:00,32.3,15.0,30.27,WSW,238,0.0,-999.0,49,-99.99,,,0.00,0,weatherlink.com 1.10,2013-03-01 05:47:00,
2013-02-28 23:00:00,32.0,15.0,30.26,NNW,345,4.0,-999.0,49,-99.99,,,0.00,0,weatherlink.com 1.10,2013-03-01 06:00:00,
2013-02-28 23:17:00,32.0,15.0,30.27,North,5,3.0,-999.0,49,-99.99,,,0.00,0,weatherlink.com 1.10,2013-03-01 06:17:00,
2013-02-28 23:31:00,30.3,14.0,30.28,North,5,10.0,-999.0,52,-99.99,,,0.00,0,weatherlink.com 1.10,2013-03-01 06:31:00,
2013-02-28 23:47:00,30.7,16.0,30.28,NNW,338,12.0,-999.0,55,-99.99,,,0.00,0,weatherlink.com 1.10,2013-03-01 06:47:00,